createdAt,value
2018-07-28T00:01:17.307Z,102543.17
2018-07-28T00:03:46.106Z,102536.48
2018-07-28T00:06:15.055Z,102533.14
2018-07-28T00:08:43.979Z,102531.91
2018-07-28T00:11:12.832Z,102529.08
2018-07-28T00:13:41.676Z,102528.94
2018-07-28T00:16:10.514Z,102526.39
2018-07-28T00:18:39.333Z,102530.42
2018-07-28T00:21:08.122Z,102522.47
2018-07-28T00:23:36.902Z,102520.75
2018-07-28T00:26:10.896Z,102512.09
2018-07-28T00:28:39.676Z,102504.42
2018-07-28T00:31:08.502Z,102504.19
2018-07-28T00:33:37.341Z,102507.98
2018-07-28T00:36:06.117Z,102506.83
2018-07-28T00:38:34.925Z,102505.67
2018-07-28T00:41:03.843Z,102500.69
2018-07-28T00:43:32.636Z,102499.34
2018-07-28T00:46:01.439Z,102495.55
2018-07-28T00:48:30.270Z,102483.76
2018-07-28T00:50:59.041Z,102481.67
2018-07-28T00:53:27.813Z,102484.36
2018-07-28T00:55:56.660Z,102491.58
2018-07-28T00:58:25.462Z,102491.94
2018-07-28T01:00:54.229Z,102488.94
2018-07-28T01:03:23.108Z,102491.58
2018-07-28T01:05:51.925Z,102484.91
2018-07-28T01:08:20.704Z,102472.61
2018-07-28T01:10:49.488Z,102473.36
2018-07-28T01:13:18.289Z,102467.44
2018-07-28T01:15:47.115Z,102465.77
2018-07-28T01:18:15.916Z,102470.76
2018-07-28T01:20:44.765Z,102466.17
2018-07-28T01:23:13.561Z,102461.14
2018-07-28T01:25:42.395Z,102458.19
2018-07-28T01:28:11.232Z,102460.31
2018-07-28T01:30:39.985Z,102459.67
2018-07-28T01:33:08.960Z,102451.78
2018-07-28T01:35:37.854Z,102464.03
2018-07-28T01:38:06.663Z,102459.72
2018-07-28T01:40:35.495Z,102464.09
2018-07-28T01:43:04.322Z,102452.75
2018-07-28T01:45:33.121Z,102459.08
2018-07-28T01:48:01.931Z,102463.23
2018-07-28T01:50:30.705Z,102464.42
2018-07-28T01:52:59.511Z,102450.27
2018-07-28T01:55:28.304Z,102451.92
2018-07-28T01:57:57.115Z,102458.02
2018-07-28T02:00:25.982Z,102451.66
2018-07-28T02:02:54.776Z,102450.08
2018-07-28T02:05:23.615Z,102454.80
2018-07-28T02:07:52.420Z,102450.89
2018-07-28T02:10:21.309Z,102455.38
2018-07-28T02:12:50.125Z,102455.08
2018-07-28T02:15:18.930Z,102452.25
2018-07-28T02:17:47.819Z,102455.30
2018-07-28T02:20:16.629Z,102448.68
2018-07-28T02:22:45.406Z,102446.80
2018-07-28T02:25:14.208Z,102446.77
2018-07-28T02:27:42.982Z,102444.66
2018-07-28T02:30:11.764Z,102450.27
2018-07-28T02:32:40.570Z,102444.91
2018-07-28T02:35:09.579Z,102441.38
2018-07-28T02:37:38.513Z,102444.86
2018-07-28T02:40:07.493Z,102440.15
2018-07-28T02:42:36.333Z,102445.22
2018-07-28T02:45:05.470Z,102449.11
2018-07-28T02:47:34.309Z,102451.41
2018-07-28T02:50:03.093Z,102446.80
2018-07-28T02:52:31.871Z,102450.08
2018-07-28T02:55:00.669Z,102450.61
2018-07-28T02:57:29.500Z,102439.89
2018-07-28T02:59:58.253Z,102440.02
2018-07-28T03:02:27.051Z,102437.20
2018-07-28T03:04:55.846Z,102431.49
2018-07-28T03:07:24.646Z,102433.53
2018-07-28T03:09:53.432Z,102433.03
2018-07-28T03:12:22.230Z,102433.58
2018-07-28T03:14:51.018Z,102434.05
2018-07-28T03:17:19.857Z,102430.00
2018-07-28T03:19:48.622Z,102432.42
2018-07-28T03:22:17.437Z,102421.55
2018-07-28T03:24:46.226Z,102420.06
2018-07-28T03:27:15.032Z,102405.72
2018-07-28T03:29:43.833Z,102399.26
2018-07-28T03:32:12.624Z,102392.64
2018-07-28T03:34:41.443Z,102392.52
2018-07-28T03:37:10.264Z,102388.00
2018-07-28T03:39:39.047Z,102382.41
2018-07-28T03:42:07.870Z,102375.99
2018-07-28T03:44:36.683Z,102373.59
2018-07-28T03:47:05.510Z,102382.09
2018-07-28T03:49:34.267Z,102381.54
2018-07-28T03:52:03.020Z,102377.80
2018-07-28T03:54:31.801Z,102378.55
2018-07-28T03:57:00.600Z,102380.12
2018-07-28T03:59:29.381Z,102378.55
2018-07-28T04:01:58.186Z,102369.91
2018-07-28T04:04:27.006Z,102375.86
2018-07-28T04:06:55.761Z,102377.20
2018-07-28T04:09:24.526Z,102368.14
2018-07-28T04:11:53.302Z,102299.95
2018-07-28T04:14:22.073Z,102366.72
2018-07-28T04:16:50.885Z,102364.08
2018-07-28T04:19:19.673Z,102370.55
2018-07-28T04:21:48.457Z,102369.45
2018-07-28T04:24:17.230Z,102365.70
2018-07-28T04:26:46.071Z,102373.14
2018-07-28T04:29:14.837Z,102373.92
2018-07-28T04:31:43.629Z,102376.46
2018-07-28T04:34:12.390Z,102375.56
2018-07-28T04:36:41.228Z,102370.41
2018-07-28T04:39:12.168Z,102375.80
2018-07-28T04:41:41.534Z,102373.33
2018-07-28T04:44:10.617Z,102375.08
2018-07-28T04:46:39.423Z,102371.16
2018-07-28T04:49:08.720Z,102373.88
2018-07-28T04:51:38.122Z,102374.61
2018-07-28T04:54:06.909Z,102366.68
2018-07-28T04:56:35.724Z,102368.08
2018-07-28T04:59:04.508Z,102359.48
2018-07-28T05:01:33.302Z,102353.27
2018-07-28T05:04:02.137Z,102357.91
2018-07-28T05:06:30.965Z,102352.44
2018-07-28T05:08:59.753Z,102352.58
2018-07-28T05:11:28.530Z,102352.13
2018-07-28T05:13:57.333Z,102349.08
2018-07-28T05:16:26.149Z,102342.36
2018-07-28T05:18:54.957Z,102344.77
2018-07-28T05:21:23.750Z,102347.45
2018-07-28T05:23:52.662Z,102351.02
2018-07-28T05:26:21.361Z,102351.63
2018-07-28T05:28:50.271Z,102349.29
2018-07-28T05:31:21.016Z,102347.34
2018-07-28T05:33:49.794Z,102351.81
2018-07-28T05:36:18.610Z,102349.56
2018-07-28T05:38:47.585Z,102339.45
2018-07-28T05:41:16.390Z,102342.37
2018-07-28T05:43:45.269Z,102343.95
2018-07-28T05:46:14.237Z,102338.33
2018-07-28T05:48:43.291Z,102339.31
2018-07-28T05:51:12.309Z,102342.73
2018-07-28T05:53:41.101Z,102337.61
2018-07-28T05:56:11.715Z,102335.50
2018-07-28T05:58:41.576Z,102339.08
2018-07-28T06:01:10.428Z,102343.95
2018-07-28T06:03:39.209Z,102348.14
2018-07-28T06:06:08.060Z,102345.23
2018-07-28T06:08:36.867Z,102343.73
2018-07-28T06:11:05.682Z,102340.33
2018-07-28T06:13:34.507Z,102272.62
2018-07-28T06:16:03.351Z,102344.97
2018-07-28T06:18:32.114Z,102345.91
2018-07-28T06:21:00.913Z,102345.28
2018-07-28T06:23:29.738Z,102342.23
2018-07-28T06:25:58.538Z,102344.92
2018-07-28T06:28:27.350Z,102342.48
2018-07-28T06:30:56.170Z,102346.11
2018-07-28T06:33:24.929Z,102347.81
2018-07-28T06:35:53.765Z,102335.08
2018-07-28T06:38:22.565Z,102340.27
2018-07-28T06:40:51.354Z,102344.30
2018-07-28T06:43:20.135Z,102349.41
2018-07-28T06:45:48.937Z,102342.85
2018-07-28T06:48:17.717Z,102344.73
2018-07-28T06:50:46.592Z,102346.62
2018-07-28T06:53:15.412Z,102340.12
2018-07-28T06:55:44.154Z,102342.83
2018-07-28T06:58:12.918Z,102336.33
2018-07-28T07:00:41.709Z,102341.06
2018-07-28T07:03:10.450Z,102345.73
2018-07-28T07:05:39.201Z,102341.78
2018-07-28T07:08:08.143Z,102344.02
2018-07-28T07:10:36.937Z,102340.25
2018-07-28T07:13:05.787Z,102341.16
2018-07-28T07:15:34.678Z,102344.30
2018-07-28T07:18:03.471Z,102342.37
2018-07-28T07:20:32.227Z,102339.23
2018-07-28T07:23:00.998Z,102333.16
2018-07-28T07:25:29.823Z,102334.40
2018-07-28T07:27:58.625Z,102327.06
2018-07-28T07:30:27.515Z,102326.31
2018-07-28T07:32:56.349Z,102322.51
2018-07-28T07:35:25.776Z,102325.72
2018-07-28T07:37:54.585Z,102328.84
2018-07-28T07:40:23.419Z,102334.59
2018-07-28T07:42:52.256Z,102329.95
2018-07-28T07:45:21.159Z,102330.44
2018-07-28T07:47:49.974Z,102334.48
2018-07-28T07:50:18.805Z,102329.21
2018-07-28T07:52:47.609Z,102332.73
2018-07-28T07:55:16.421Z,102334.76
2018-07-28T07:57:45.301Z,102169.37
2018-07-28T08:00:14.163Z,102329.84
2018-07-28T08:02:43.014Z,102323.03
2018-07-28T08:05:11.815Z,102332.06
2018-07-28T08:07:40.645Z,102331.52
2018-07-28T08:10:09.509Z,102324.50
2018-07-28T08:12:38.353Z,102321.00
2018-07-28T08:15:07.553Z,102321.08
2018-07-28T08:17:36.396Z,102323.41
2018-07-28T08:20:05.865Z,102328.05
2018-07-28T08:22:34.713Z,102329.24
2018-07-28T08:25:04.382Z,102329.95
2018-07-28T08:27:33.232Z,102323.80
2018-07-28T08:30:02.063Z,102327.08
2018-07-28T08:32:30.933Z,102316.02
2018-07-28T08:34:59.681Z,102322.20
2018-07-28T08:37:28.610Z,102320.28
2018-07-28T08:39:57.424Z,102315.53
2018-07-28T08:42:26.262Z,102319.92
2018-07-28T08:44:55.054Z,102313.39
2018-07-28T08:47:23.820Z,102313.33
2018-07-28T08:49:52.619Z,102312.62
2018-07-28T08:52:21.450Z,102312.77
2018-07-28T08:54:50.281Z,102309.06
2018-07-28T08:57:19.100Z,102308.23
2018-07-28T08:59:47.904Z,102298.91
2018-07-28T09:02:16.670Z,102295.64
2018-07-28T09:04:45.418Z,102300.39
2018-07-28T09:07:14.353Z,102293.94
2018-07-28T09:09:43.144Z,102299.98
2018-07-28T09:12:11.965Z,102297.28
2018-07-28T09:14:40.742Z,102289.26
2018-07-28T09:17:09.532Z,102287.27
2018-07-28T09:19:38.316Z,102287.97
2018-07-28T09:22:07.117Z,102281.09
2018-07-28T09:24:35.905Z,102279.14
2018-07-28T09:27:04.804Z,102285.37
2018-07-28T09:29:33.590Z,102288.84
2018-07-28T09:32:02.346Z,102284.14
2018-07-28T09:34:31.135Z,102282.48
2018-07-28T09:36:59.900Z,102285.11
2018-07-28T09:39:28.714Z,102276.15
2018-07-28T09:41:57.484Z,102280.95
2018-07-28T09:44:26.231Z,102278.42
2018-07-28T09:46:55.026Z,102276.83
2018-07-28T09:49:23.844Z,102274.62
2018-07-28T09:51:52.612Z,102275.83
2018-07-28T09:54:21.375Z,102272.54
2018-07-28T09:56:50.174Z,102265.95
2018-07-28T09:59:18.981Z,102269.48
2018-07-28T10:01:47.743Z,102269.05
2018-07-28T10:04:16.525Z,102279.45
2018-07-28T10:07:04.042Z,102279.80
2018-07-28T10:09:32.865Z,102284.45
2018-07-28T10:12:01.648Z,102282.81
2018-07-28T10:14:30.429Z,102289.27
2018-07-28T10:16:59.238Z,102284.13
2018-07-28T10:19:28.006Z,102288.36
2018-07-28T10:21:56.797Z,102281.82
2018-07-28T10:24:25.573Z,102283.22
2018-07-28T10:26:54.330Z,102271.80
2018-07-28T10:29:23.345Z,102274.91
2018-07-28T10:31:52.137Z,102274.52
2018-07-28T10:34:20.899Z,102273.30
2018-07-28T10:36:49.682Z,102273.99
2018-07-28T10:39:18.466Z,102274.25
2018-07-28T10:41:47.250Z,102271.37
2018-07-28T10:44:16.064Z,102270.67
2018-07-28T10:46:44.841Z,102268.01
2018-07-28T10:49:13.649Z,102263.13
2018-07-28T10:51:42.444Z,102253.53
2018-07-28T10:54:11.229Z,102250.13
2018-07-28T10:56:40.011Z,102252.31
2018-07-28T10:59:08.857Z,102254.02
2018-07-28T11:01:37.675Z,102245.55
2018-07-28T11:04:06.800Z,102247.25
2018-07-28T11:06:35.624Z,102248.12
2018-07-28T11:09:06.181Z,102249.52
2018-07-28T11:11:34.958Z,102235.34
2018-07-28T11:14:03.892Z,102235.72
2018-07-28T11:16:32.645Z,102232.12
2018-07-28T11:19:01.515Z,102231.11
2018-07-28T11:21:30.647Z,102226.22
2018-07-28T11:24:00.712Z,102228.41
2018-07-28T11:26:29.513Z,102235.20
2018-07-28T11:28:58.382Z,102231.50
2018-07-28T11:31:38.096Z,102234.06
2018-07-28T11:34:17.872Z,102229.03
2018-07-28T11:36:57.695Z,102232.95
2018-07-28T11:39:37.664Z,102225.53
2018-07-28T11:42:17.305Z,102230.63
2018-07-28T11:45:01.990Z,102230.11
2018-07-28T11:47:30.776Z,102226.92
2018-07-28T11:49:59.541Z,102225.39
2018-07-28T11:52:28.346Z,102225.39
2018-07-28T11:54:57.119Z,102223.52
2018-07-28T11:57:25.972Z,102224.73
2018-07-28T11:59:54.806Z,102217.48
2018-07-28T12:02:23.587Z,102218.34
2018-07-28T12:04:52.480Z,102221.25
2018-07-28T12:07:21.639Z,102216.25
2018-07-28T12:09:50.418Z,102213.53
2018-07-28T12:12:19.216Z,102203.23
2018-07-28T12:14:47.993Z,102200.70
2018-07-28T12:17:16.815Z,102207.34
2018-07-28T12:19:45.589Z,102202.77
2018-07-28T12:22:14.466Z,102197.06
2018-07-28T12:24:43.278Z,102185.89
2018-07-28T12:27:12.107Z,102182.55
2018-07-28T12:29:41.238Z,102189.11
2018-07-28T12:32:10.217Z,102190.95
2018-07-28T12:34:39.049Z,102192.86
2018-07-28T12:37:07.883Z,102182.57
2018-07-28T12:39:36.678Z,102184.67
2018-07-28T12:42:05.531Z,102177.95
2018-07-28T12:44:34.305Z,102172.19
2018-07-28T12:47:03.092Z,102163.73
2018-07-28T12:49:31.881Z,102174.61
2018-07-28T12:52:00.653Z,102169.71
2018-07-28T12:54:29.440Z,102169.17
2018-07-28T12:56:58.221Z,102168.69
2018-07-28T12:59:26.985Z,102161.06
2018-07-28T13:01:55.790Z,102162.09
2018-07-28T13:04:24.562Z,102147.54
2018-07-28T13:06:53.529Z,102150.77
2018-07-28T13:09:22.329Z,102143.12
2018-07-28T13:11:51.126Z,102145.14
2018-07-28T13:14:19.902Z,102141.08
2018-07-28T13:16:48.724Z,102145.48
2018-07-28T13:19:17.574Z,102145.00
2018-07-28T13:21:46.414Z,102144.14
2018-07-28T13:24:15.247Z,102140.61
2018-07-28T13:26:44.081Z,102141.29
2018-07-28T13:29:12.903Z,102137.05
2018-07-28T13:31:41.742Z,102127.92
2018-07-28T13:34:10.540Z,102120.48
2018-07-28T13:36:39.329Z,102115.39
2018-07-28T13:39:08.885Z,102118.44
2018-07-28T13:41:37.876Z,102122.67
2018-07-28T13:44:06.889Z,102107.11
2018-07-28T13:46:35.708Z,102118.78
2018-07-28T13:49:04.914Z,102100.02
2018-07-28T13:51:33.894Z,102105.24
2018-07-28T13:54:02.732Z,101915.59
2018-07-28T13:56:31.573Z,102095.81
2018-07-28T13:59:00.470Z,102093.09
2018-07-28T14:01:29.315Z,102092.77
2018-07-28T14:03:58.155Z,102077.19
2018-07-28T14:06:27.001Z,102076.85
2018-07-28T14:08:55.828Z,102082.27
2018-07-28T14:11:24.662Z,102079.22
2018-07-28T14:13:53.741Z,102066.02
2018-07-28T14:16:22.589Z,102063.98
2018-07-28T14:18:51.475Z,102059.94
2018-07-28T14:21:20.297Z,102059.59
2018-07-28T14:23:49.094Z,102054.52
2018-07-28T14:26:17.938Z,102054.86
2018-07-28T14:28:46.759Z,102055.88
2018-07-28T14:31:15.538Z,102064.34
2018-07-28T14:33:44.431Z,102052.16
2018-07-28T14:36:13.218Z,102043.34
2018-07-28T14:38:42.054Z,102054.67
2018-07-28T14:41:10.878Z,102047.41
2018-07-28T14:43:39.681Z,102038.08
2018-07-28T14:46:08.513Z,102043.01
2018-07-28T14:48:37.340Z,102040.98
2018-07-28T14:51:06.185Z,102043.34
2018-07-28T14:53:34.974Z,102038.95
2018-07-28T14:56:03.750Z,102034.20
2018-07-28T14:58:32.693Z,102031.83
2018-07-28T15:01:01.478Z,102033.87
2018-07-28T15:03:30.259Z,102037.92
2018-07-28T15:05:59.185Z,102036.58
2018-07-28T15:08:27.951Z,102039.29
2018-07-28T15:10:56.734Z,102027.25
2018-07-28T15:13:25.587Z,102019.30
2018-07-28T15:15:54.379Z,102025.25
2018-07-28T15:18:23.173Z,102024.58
2018-07-28T15:20:52.144Z,102020.84
2018-07-28T15:23:20.969Z,102021.67
2018-07-28T15:25:49.811Z,102025.20
2018-07-28T15:28:18.643Z,102012.86
2018-07-28T15:30:47.442Z,102022.35
2018-07-28T15:33:16.230Z,102011.17
2018-07-28T15:35:45.020Z,102011.51
2018-07-28T15:38:13.821Z,102010.31
2018-07-28T15:40:42.653Z,102006.92
2018-07-28T15:43:11.441Z,102007.78
2018-07-28T15:45:40.282Z,101997.96
2018-07-28T15:48:09.135Z,101998.98
2018-07-28T15:50:37.877Z,101997.62
2018-07-28T15:53:06.749Z,101990.33
2018-07-28T15:55:35.556Z,101998.98
2018-07-28T15:58:04.521Z,101990.66
2018-07-28T16:00:33.338Z,101954.23
2018-07-28T16:03:02.162Z,101969.33
2018-07-28T16:05:31.048Z,101973.23
2018-07-28T16:07:59.969Z,101969.85
2018-07-28T16:10:28.813Z,101956.45
2018-07-28T16:12:57.602Z,101954.09
2018-07-28T16:15:26.377Z,101954.61
2018-07-28T16:17:55.164Z,101959.69
2018-07-28T16:20:24.043Z,101951.72
2018-07-28T16:22:52.956Z,101950.88
2018-07-28T16:25:21.773Z,101944.11
2018-07-28T16:27:50.627Z,101939.86
2018-07-28T16:30:19.427Z,101945.13
2018-07-28T16:32:48.288Z,101942.08
2018-07-28T16:35:17.096Z,101939.71
2018-07-28T16:37:45.997Z,101940.39
2018-07-28T16:40:15.030Z,101620.34
2018-07-28T16:42:43.848Z,101938.36
2018-07-28T16:45:12.668Z,101929.36
2018-07-28T16:47:41.552Z,101931.92
2018-07-28T16:50:10.565Z,101925.83
2018-07-28T16:52:39.527Z,101922.59
2018-07-28T16:55:08.388Z,101926.31
2018-07-28T16:57:37.263Z,101918.34
2018-07-28T17:00:06.431Z,101914.28
2018-07-28T17:02:35.236Z,101909.20
2018-07-28T17:05:04.317Z,101908.90
2018-07-28T17:07:33.150Z,101908.71
2018-07-28T17:10:01.984Z,101906.50
2018-07-28T17:12:30.801Z,101903.14
2018-07-28T17:14:59.631Z,101911.58
2018-07-28T17:17:28.441Z,101899.57
2018-07-28T17:19:57.267Z,101903.63
2018-07-28T17:22:26.163Z,101902.62
2018-07-28T17:24:54.991Z,101905.81
2018-07-28T17:27:23.880Z,101901.08
2018-07-28T17:29:52.780Z,101901.08
2018-07-28T17:32:21.662Z,101897.20
2018-07-28T17:34:50.461Z,101898.22
2018-07-28T17:37:19.273Z,101897.35
2018-07-28T17:39:48.047Z,101897.00
2018-07-28T17:42:17.004Z,101893.78
2018-07-28T17:44:45.870Z,101892.90
2018-07-28T17:47:14.689Z,101891.26
2018-07-28T17:49:43.477Z,101882.45
2018-07-28T17:52:12.309Z,101882.70
2018-07-28T17:54:41.084Z,101886.59
2018-07-28T17:57:09.949Z,101887.42
2018-07-28T17:59:38.754Z,101894.87
2018-07-28T18:02:07.585Z,101902.17
2018-07-28T18:04:36.483Z,101888.78
2018-07-28T18:07:05.442Z,101890.08
2018-07-28T18:09:34.301Z,101882.48
2018-07-28T18:12:03.124Z,101875.05
2018-07-28T18:14:31.965Z,101879.84
2018-07-28T18:17:00.757Z,101870.94
2018-07-28T18:19:29.601Z,101880.05
2018-07-28T18:21:58.386Z,101870.25
2018-07-28T18:24:27.173Z,101866.86
2018-07-28T18:26:56.123Z,101864.48
2018-07-28T18:29:24.930Z,101864.23
2018-07-28T18:31:53.841Z,101860.94
2018-07-28T18:34:22.638Z,101867.80
2018-07-28T18:36:51.501Z,101863.97
2018-07-28T18:39:20.323Z,101860.84
2018-07-28T18:41:49.166Z,101861.17
2018-07-28T18:44:18.037Z,101860.22
2018-07-28T18:46:46.897Z,101857.52
2018-07-28T18:49:15.694Z,101856.36
2018-07-28T18:51:44.499Z,101847.56
2018-07-28T18:54:13.367Z,101862.17
2018-07-28T18:56:42.262Z,101857.91
2018-07-28T18:59:11.081Z,101859.82
2018-07-28T19:01:39.986Z,101860.81
2018-07-28T19:04:08.858Z,101864.67
2018-07-28T19:06:37.680Z,101862.75
2018-07-28T19:09:13.350Z,101861.61
2018-07-28T19:11:42.933Z,101874.58
2018-07-28T19:14:16.909Z,101873.38
2018-07-28T19:16:46.273Z,101866.88
2018-07-28T19:19:16.553Z,101862.91
2018-07-28T19:21:46.193Z,101864.89
2018-07-28T19:24:15.028Z,101868.14
2018-07-28T19:26:43.857Z,101872.86
2018-07-28T19:29:17.860Z,101869.77
2018-07-28T19:31:53.707Z,101871.98
2018-07-28T19:34:22.502Z,101877.75
2018-07-28T19:37:07.306Z,101883.91
2018-07-28T19:39:36.169Z,101883.91
2018-07-28T19:42:10.221Z,101884.17
2018-07-28T19:44:39.152Z,101881.27
2018-07-28T19:47:08.014Z,101882.23
2018-07-28T19:49:36.812Z,101886.63
2018-07-28T19:52:05.649Z,101889.35
2018-07-28T19:54:34.482Z,101890.02
2018-07-28T19:57:03.331Z,101883.83
2018-07-28T19:59:32.182Z,101881.55
2018-07-28T20:02:01.012Z,101882.65
2018-07-28T20:04:29.865Z,101876.45
2018-07-28T20:06:58.672Z,101877.25
2018-07-28T20:09:27.508Z,101876.73
2018-07-28T20:11:56.334Z,101879.81
2018-07-28T20:14:25.182Z,101876.30
2018-07-28T20:16:54.047Z,101873.69
2018-07-28T20:19:22.884Z,101870.06
2018-07-28T20:21:51.732Z,101876.95
2018-07-28T20:24:20.536Z,101875.55
2018-07-28T20:26:49.355Z,101880.69
2018-07-28T20:29:18.116Z,101862.94
2018-07-28T20:31:46.961Z,101869.20
2018-07-28T20:34:15.777Z,101871.06
2018-07-28T20:36:44.604Z,101869.69
2018-07-28T20:39:13.859Z,101862.36
2018-07-28T20:41:42.749Z,101870.37
2018-07-28T20:44:11.748Z,101864.75
2018-07-28T20:46:40.640Z,101866.12
2018-07-28T20:49:09.479Z,101870.17
2018-07-28T20:51:38.345Z,101864.45
2018-07-28T20:54:07.582Z,101842.06
2018-07-28T20:56:36.479Z,101855.69
2018-07-28T20:59:05.278Z,101862.05
2018-07-28T21:01:34.115Z,101855.79
2018-07-28T21:04:02.971Z,101868.00
2018-07-28T21:06:31.990Z,101857.63
2018-07-28T21:09:00.817Z,101854.12
2018-07-28T21:11:29.948Z,101858.08
2018-07-28T21:13:58.754Z,101863.72
2018-07-28T21:16:27.635Z,101858.66
2018-07-28T21:18:56.424Z,101858.86
2018-07-28T21:21:25.226Z,101860.53
2018-07-28T21:23:54.041Z,101860.84
2018-07-28T21:26:22.891Z,101857.86
2018-07-28T21:28:51.713Z,101851.08
2018-07-28T21:31:20.577Z,101855.91
2018-07-28T21:33:49.417Z,101848.92
2018-07-28T21:36:18.256Z,101844.75
2018-07-28T21:38:47.070Z,101842.72
2018-07-28T21:41:15.879Z,101836.80
2018-07-28T21:43:44.723Z,101838.49
2018-07-28T21:46:13.547Z,101837.41
2018-07-28T21:48:42.338Z,101824.94
2018-07-28T21:51:11.158Z,101823.39
2018-07-28T21:53:40.007Z,101816.78
2018-07-28T21:56:08.841Z,101819.94
2018-07-28T21:58:37.686Z,101813.05
2018-07-28T22:01:13.568Z,101810.98
2018-07-28T22:03:42.537Z,101811.24
2018-07-28T22:06:11.349Z,101802.13
2018-07-28T22:08:40.165Z,101803.66
2018-07-28T22:11:09.067Z,101762.50
2018-07-28T22:13:37.916Z,101789.84
2018-07-28T22:16:06.794Z,101793.00
2018-07-28T22:18:35.679Z,101790.65
2018-07-28T22:21:04.544Z,101787.26
2018-07-28T22:23:33.375Z,101774.50
2018-07-28T22:26:02.220Z,101773.66
2018-07-28T22:28:31.128Z,101771.84
2018-07-28T22:30:59.965Z,101767.62
2018-07-28T22:33:28.822Z,101768.28
2018-07-28T22:35:57.633Z,101767.50
2018-07-28T22:38:26.544Z,101772.23
2018-07-28T22:40:55.376Z,101763.47
2018-07-28T22:43:24.180Z,101773.61
2018-07-28T22:45:53.040Z,101772.58
2018-07-28T22:48:21.913Z,101779.48
2018-07-28T22:50:50.729Z,101771.38
2018-07-28T22:53:19.533Z,101763.30
2018-07-28T22:55:48.344Z,101763.77
2018-07-28T22:58:17.187Z,101758.83
2018-07-28T23:00:46.054Z,101758.17
2018-07-28T23:03:14.868Z,101752.95
2018-07-28T23:05:43.719Z,101749.22
2018-07-28T23:08:12.565Z,101753.22
2018-07-28T23:10:41.576Z,101753.91
2018-07-28T23:13:10.406Z,101752.92
2018-07-28T23:15:39.226Z,101748.51
2018-07-28T23:18:08.203Z,101747.50
2018-07-28T23:20:37.014Z,101749.34
2018-07-28T23:23:05.812Z,101747.80
2018-07-28T23:25:34.653Z,101747.64
2018-07-28T23:28:03.476Z,101746.45
2018-07-28T23:30:32.328Z,101745.09
2018-07-28T23:33:01.155Z,101741.05
2018-07-28T23:35:29.970Z,101736.00
2018-07-28T23:37:58.762Z,101743.72
2018-07-28T23:40:27.603Z,101731.58
2018-07-28T23:42:56.385Z,101733.07
2018-07-28T23:45:25.185Z,101736.66
2018-07-28T23:47:54.010Z,101735.09
2018-07-28T23:50:22.850Z,101739.81
2018-07-28T23:52:51.670Z,101743.64
2018-07-28T23:55:20.476Z,101738.95
2018-07-28T23:57:49.302Z,101739.67
